Time;durP1;ratioP1;P1;durP2;ratioP2;P2;SDS_P1;SDS_P2;PMS_P1;PMS_P2;Temp;Humidity;BMP_temperature;BMP_pressure;BME280_temperature;BME280_humidity;BME280_pressure;Samples;Min_cycle;Max_cycle;Signal;HPM_P1;HPM_P2
2023/06/16 00:00:21;;;;;;;2.90;2.70;;;17.30;96.10;;;;;;5080575;28;20206;-48
2023/06/16 00:02:49;;;;;;;3.87;3.57;;;17.30;96.30;;;;;;5067190;28;20208;-48
2023/06/16 00:05:17;;;;;;;5.00;3.57;;;17.30;96.10;;;;;;5080837;28;20903;-48
2023/06/16 00:07:45;;;;;;;3.23;2.93;;;17.30;96.30;;;;;;5077368;28;20281;-52
2023/06/16 00:10:12;;;;;;;3.43;3.13;;;17.30;96.40;;;;;;5057708;28;20244;-48
2023/06/16 00:12:40;;;;;;;5.80;3.70;;;17.30;96.50;;;;;;5082472;28;20196;-48
2023/06/16 00:15:09;;;;;;;3.97;3.57;;;17.30;96.80;;;;;;5079510;28;20182;-48
2023/06/16 00:17:46;;;;;;;3.40;3.10;;;17.30;97.20;;;;;;5075753;28;20267;-48
2023/06/16 00:20:15;;;;;;;5.23;3.20;;;17.30;97.20;;;;;;5079947;28;20205;-48
2023/06/16 00:22:47;;;;;;;4.90;4.00;;;17.40;97.00;;;;;;5077211;28;20264;-47
2023/06/16 00:25:16;;;;;;;3.10;2.90;;;17.40;96.80;;;;;;5060066;28;20265;-47
2023/06/16 00:27:43;;;;;;;4.07;3.77;;;17.40;96.70;;;;;;5082827;28;20185;-51
2023/06/16 00:30:11;;;;;;;5.73;3.73;;;17.40;96.60;;;;;;5079508;28;20194;-48
2023/06/16 00:32:38;;;;;;;3.73;3.33;;;17.40;96.60;;;;;;5056208;28;20205;-52
2023/06/16 00:35:06;;;;;;;5.53;3.90;;;17.40;97.30;;;;;;5055393;28;20202;-49
2023/06/16 00:37:34;;;;;;;3.23;2.90;;;17.40;97.20;;;;;;5083075;28;20224;-47
2023/06/16 00:40:04;;;;;;;4.77;3.43;;;17.40;97.10;;;;;;5059830;28;20222;-50
2023/06/16 00:42:31;;;;;;;4.93;3.43;;;17.40;97.10;;;;;;5061997;28;20232;-52
2023/06/16 00:45:00;;;;;;;3.53;2.93;;;17.40;97.10;;;;;;5058621;28;20206;-50
2023/06/16 00:47:27;;;;;;;4.67;3.33;;;17.40;97.10;;;;;;5071229;28;20194;-48
2023/06/16 00:49:54;;;;;;;3.50;3.20;;;17.40;97.20;;;;;;5079807;28;20676;-49
2023/06/16 00:52:26;;;;;;;4.07;3.67;;;17.30;97.30;;;;;;5081266;28;20218;-48
2023/06/16 00:54:55;;;;;;;4.93;3.20;;;17.30;97.30;;;;;;5080623;28;20206;-49
2023/06/16 00:57:24;;;;;;;4.00;3.33;;;17.40;97.20;;;;;;5056810;28;20197;-48
2023/06/16 00:59:51;;;;;;;3.90;3.60;;;17.40;97.00;;;;;;5078117;28;20292;-49
2023/06/16 01:02:19;;;;;;;3.67;3.37;;;17.40;97.10;;;;;;5054779;28;20293;-50
2023/06/16 01:04:47;;;;;;;3.57;3.10;;;17.40;97.10;;;;;;5052459;28;20202;-50
2023/06/16 01:07:20;;;;;;;3.63;3.27;;;17.40;97.40;;;;;;5082569;28;20278;-50
2023/06/16 01:09:55;;;;;;;4.57;3.77;;;17.30;97.70;;;;;;5055840;28;20206;-51
2023/06/16 01:12:28;;;;;;;3.63;3.20;;;17.30;98.10;;;;;;5042945;28;20745;-48
2023/06/16 01:15:04;;;;;;;4.30;2.97;;;17.30;98.50;;;;;;5089143;28;20223;-47
2023/06/16 01:17:37;;;;;;;4.67;3.17;;;17.30;98.50;;;;;;5081675;28;20710;-49
2023/06/16 01:20:11;;;;;;;6.13;3.77;;;17.30;98.70;;;;;;5073654;28;20218;-48
2023/06/16 01:22:55;;;;;;;3.83;3.50;;;17.30;99.10;;;;;;5074940;28;20186;-48
2023/06/16 01:25:28;;;;;;;6.33;3.30;;;17.20;99.30;;;;;;5082471;28;20552;-47
2023/06/16 01:27:57;;;;;;;3.90;3.33;;;17.20;99.60;;;;;;5058495;28;20206;-48
2023/06/16 01:30:28;;;;;;;4.07;3.77;;;17.10;99.80;;;;;;5064157;28;20218;-48
2023/06/16 01:32:58;;;;;;;3.60;3.30;;;17.10;99.80;;;;;;5076113;28;20186;-47
2023/06/16 01:35:26;;;;;;;5.50;4.10;;;17.10;99.90;;;;;;5053215;28;20379;-48
2023/06/16 01:37:54;;;;;;;3.40;3.10;;;17.10;99.90;;;;;;5078648;28;20475;-48
2023/06/16 01:40:22;;;;;;;3.63;3.33;;;17.20;99.90;;;;;;5064368;28;20210;-47
2023/06/16 01:42:52;;;;;;;3.67;3.33;;;17.20;99.90;;;;;;5059781;28;20320;-48
2023/06/16 01:45:20;;;;;;;5.43;3.47;;;17.20;99.90;;;;;;5080568;28;20189;-52
2023/06/16 01:47:48;;;;;;;3.93;3.33;;;17.10;99.90;;;;;;5062281;28;20194;-48
2023/06/16 01:50:15;;;;;;;4.90;3.80;;;17.10;99.90;;;;;;5054837;28;20719;-48
2023/06/16 01:52:43;;;;;;;3.90;3.60;;;17.10;99.90;;;;;;5063314;28;20198;-50
2023/06/16 01:55:11;;;;;;;4.27;3.90;;;17.10;99.90;;;;;;5055914;28;20773;-49
2023/06/16 01:57:38;;;;;;;4.83;4.37;;;17.10;99.90;;;;;;5040282;28;21079;-48
2023/06/16 02:00:14;;;;;;;4.67;4.27;;;17.00;99.90;;;;;;5063334;28;20308;-51
2023/06/16 02:02:46;;;;;;;5.57;3.97;;;17.00;99.90;;;;;;5084083;28;20251;-49
2023/06/16 02:05:16;;;;;;;5.10;4.53;;;16.90;99.90;;;;;;5056235;28;20229;-49
2023/06/16 02:07:45;;;;;;;5.17;3.60;;;17.00;99.90;;;;;;5085055;28;20612;-46
2023/06/16 02:10:13;;;;;;;5.20;3.67;;;17.00;99.90;;;;;;5075741;28;20255;-49
2023/06/16 02:12:40;;;;;;;3.87;3.10;;;17.00;99.90;;;;;;5085416;28;20285;-49
2023/06/16 02:15:10;;;;;;;4.10;3.80;;;17.00;99.90;;;;;;5060690;28;20206;-49
2023/06/16 02:17:44;;;;;;;3.90;3.60;;;17.00;99.90;;;;;;5085257;28;20222;-48
2023/06/16 02:20:11;;;;;;;3.57;3.27;;;17.10;99.90;;;;;;5072502;28;20233;-48
2023/06/16 02:22:39;;;;;;;4.00;3.60;;;17.00;99.90;;;;;;5080990;28;20236;-48
2023/06/16 02:25:07;;;;;;;3.90;3.60;;;17.00;99.90;;;;;;5081958;28;20194;-51
2023/06/16 02:27:34;;;;;;;6.83;3.87;;;17.00;99.90;;;;;;5067059;28;20662;-47
2023/06/16 02:30:02;;;;;;;4.40;3.40;;;16.90;99.90;;;;;;5061548;28;20217;-49
2023/06/16 02:32:30;;;;;;;4.30;3.73;;;16.90;99.90;;;;;;5063472;28;20293;-48
2023/06/16 02:34:58;;;;;;;4.47;3.63;;;16.80;99.90;;;;;;5061446;28;20301;-50
2023/06/16 02:37:25;;;;;;;5.00;4.03;;;16.80;99.90;;;;;;5075919;28;20235;-50
2023/06/16 02:39:52;;;;;;;4.93;4.43;;;16.80;99.90;;;;;;5084002;28;20214;-47
2023/06/16 02:42:19;;;;;;;4.20;3.80;;;16.70;99.90;;;;;;5064004;28;20900;-51
2023/06/16 02:44:46;;;;;;;6.30;4.13;;;16.70;99.90;;;;;;5042250;28;20206;-50
2023/06/16 02:47:13;;;;;;;5.77;3.90;;;16.70;99.90;;;;;;5078852;28;20182;-50
2023/06/16 02:49:42;;;;;;;5.33;4.23;;;16.60;99.90;;;;;;5066164;28;20232;-49
2023/06/16 02:52:11;;;;;;;5.70;3.87;;;16.60;99.90;;;;;;5053928;28;20214;-49
2023/06/16 02:54:39;;;;;;;4.53;4.13;;;16.70;99.90;;;;;;5066397;28;20205;-48
2023/06/16 02:57:07;;;;;;;6.30;3.77;;;16.70;99.90;;;;;;5057347;28;20193;-52
2023/06/16 02:59:44;;;;;;;4.20;3.80;;;16.70;99.90;;;;;;5066070;28;20217;-50
2023/06/16 03:02:11;;;;;;;4.67;3.50;;;16.70;99.90;;;;;;5033767;28;20303;-49
2023/06/16 03:04:49;;;;;;;3.80;3.40;;;16.70;99.90;;;;;;5066121;28;20198;-51
2023/06/16 03:07:20;;;;;;;3.83;3.33;;;16.70;99.90;;;;;;5063871;28;20220;-49
2023/06/16 03:09:47;;;;;;;3.20;2.90;;;16.70;99.90;;;;;;5051980;28;20294;-50
2023/06/16 03:12:15;;;;;;;5.13;3.30;;;16.60;99.90;;;;;;5063235;28;20901;-51
2023/06/16 03:15:03;;;;;;;6.30;3.73;;;16.50;99.90;;;;;;5063170;28;20190;-50
2023/06/16 03:17:32;;;;;;;3.60;3.40;;;16.50;99.90;;;;;;5042705;28;20572;-49
2023/06/16 03:20:00;;;;;;;5.03;4.00;;;16.40;99.90;;;;;;5060748;28;20221;-50
2023/06/16 03:22:36;;;;;;;4.73;4.33;;;16.40;99.90;;;;;;5063081;28;20190;-49
2023/06/16 03:25:03;;;;;;;4.43;3.97;;;16.40;99.90;;;;;;5061831;28;20202;-49
2023/06/16 03:27:33;;;;;;;5.27;4.30;;;16.30;99.90;;;;;;5062840;28;20376;-49
2023/06/16 03:30:03;;;;;;;3.60;3.30;;;16.30;99.90;;;;;;5061821;28;20798;-48
2023/06/16 03:32:49;;;;;;;4.83;3.67;;;16.30;99.90;;;;;;5038105;28;20559;-49
2023/06/16 03:35:18;;;;;;;4.13;3.73;;;16.30;99.90;;;;;;5062511;28;20270;-49
2023/06/16 03:37:45;;;;;;;4.40;3.70;;;16.40;99.90;;;;;;5065327;28;20205;-52
2023/06/16 03:40:14;;;;;;;6.17;4.17;;;16.30;99.90;;;;;;5054669;28;20222;-48
2023/06/16 03:42:41;;;;;;;4.70;3.90;;;16.30;99.90;;;;;;5066226;28;20259;-47
2023/06/16 03:45:10;;;;;;;4.10;3.70;;;16.30;99.90;;;;;;5054243;28;20514;-48
2023/06/16 03:47:37;;;;;;;5.87;4.50;;;16.30;99.90;;;;;;5064936;28;20191;-48
2023/06/16 03:50:06;;;;;;;4.47;4.17;;;16.30;99.90;;;;;;5039603;28;20218;-49
2023/06/16 03:52:37;;;;;;;6.03;4.40;;;16.30;99.90;;;;;;5065771;28;20605;-53
2023/06/16 03:55:05;;;;;;;4.93;3.93;;;16.30;99.90;;;;;;5054279;28;20259;-47
2023/06/16 03:57:32;;;;;;;5.20;4.70;;;16.30;99.90;;;;;;5054273;28;20281;-48
2023/06/16 04:00:00;;;;;;;5.63;5.13;;;16.20;99.90;;;;;;5079889;28;20229;-51
2023/06/16 04:02:27;;;;;;;5.33;4.67;;;16.30;99.90;;;;;;5065236;28;20604;-49
2023/06/16 04:04:56;;;;;;;4.20;3.80;;;16.20;99.90;;;;;;5059242;28;20249;-51
2023/06/16 04:07:23;;;;;;;6.13;3.77;;;16.20;99.90;;;;;;5061882;28;20197;-51
2023/06/16 04:09:53;;;;;;;4.97;4.57;;;16.20;99.90;;;;;;5055111;28;20715;-48
2023/06/16 04:12:21;;;;;;;4.83;4.40;;;16.20;99.90;;;;;;5062045;28;20212;-49
2023/06/16 04:14:48;;;;;;;7.20;4.47;;;16.20;99.90;;;;;;5064419;28;20668;-50
2023/06/16 04:17:15;;;;;;;5.90;5.20;;;16.20;99.90;;;;;;5057297;28;20471;-48
2023/06/16 04:19:43;;;;;;;5.97;4.73;;;16.20;99.90;;;;;;5040957;28;20310;-49
2023/06/16 04:22:10;;;;;;;6.17;5.67;;;16.20;99.90;;;;;;5076320;28;20923;-49
2023/06/16 04:24:50;;;;;;;6.57;5.87;;;16.20;99.90;;;;;;5061580;28;20189;-52
2023/06/16 04:27:23;;;;;;;6.47;5.87;;;16.10;99.90;;;;;;5060862;28;21103;-48
2023/06/16 04:29:51;;;;;;;6.43;4.97;;;16.10;99.90;;;;;;5063837;28;20575;-52
2023/06/16 04:32:18;;;;;;;5.63;4.97;;;16.10;99.90;;;;;;5052120;28;20373;-51
2023/06/16 04:34:49;;;;;;;6.80;6.10;;;16.10;99.90;;;;;;5054858;28;20248;-50
2023/06/16 04:37:18;;;;;;;6.93;6.33;;;16.10;99.90;;;;;;5054083;28;20288;-48
2023/06/16 04:39:45;;;;;;;8.27;6.47;;;16.00;99.90;;;;;;5081077;28;20214;-52
2023/06/16 04:42:17;;;;;;;6.80;6.10;;;16.00;99.90;;;;;;5052181;28;20285;-49
2023/06/16 04:44:46;;;;;;;7.37;6.67;;;16.00;99.90;;;;;;5058740;28;20197;-48
2023/06/16 04:47:14;;;;;;;8.00;6.87;;;16.00;99.90;;;;;;5062020;28;20259;-48
2023/06/16 04:49:41;;;;;;;9.70;7.10;;;16.10;99.90;;;;;;5064393;28;20633;-50
2023/06/16 04:52:08;;;;;;;7.90;7.20;;;16.10;99.90;;;;;;5051203;28;20684;-52
2023/06/16 04:54:36;;;;;;;8.00;7.30;;;16.20;99.90;;;;;;5059414;28;20232;-52
2023/06/16 04:57:05;;;;;;;8.33;7.50;;;16.30;99.90;;;;;;5051110;28;20259;-50
2023/06/16 04:59:32;;;;;;;8.47;7.63;;;16.30;99.90;;;;;;5061076;28;20270;-53
2023/06/16 05:02:01;;;;;;;8.23;7.43;;;16.30;99.90;;;;;;5076934;28;20296;-54
2023/06/16 05:04:29;;;;;;;8.57;7.77;;;16.40;99.90;;;;;;5062770;28;20213;-51
2023/06/16 05:06:56;;;;;;;9.57;8.13;;;16.40;99.90;;;;;;5057656;28;20281;-49
2023/06/16 05:09:22;;;;;;;9.67;8.47;;;16.30;99.90;;;;;;5076682;28;20202;-50
2023/06/16 05:11:49;;;;;;;8.20;7.43;;;16.30;99.90;;;;;;5053606;28;20198;-51
2023/06/16 05:14:17;;;;;;;10.57;8.63;;;16.30;99.90;;;;;;5097764;28;20257;-48
2023/06/16 05:16:43;;;;;;;8.53;7.77;;;16.30;99.90;;;;;;5053130;28;20202;-49
2023/06/16 05:19:12;;;;;;;11.33;7.60;;;16.30;99.90;;;;;;5064406;28;20214;-49
2023/06/16 05:21:48;;;;;;;8.93;8.03;;;16.30;99.90;;;;;;5039990;28;20258;-52
2023/06/16 05:24:15;;;;;;;9.20;8.00;;;16.40;99.90;;;;;;5068027;28;20272;-48
2023/06/16 05:26:42;;;;;;;9.37;8.07;;;16.40;99.90;;;;;;5062703;28;20300;-49
2023/06/16 05:29:08;;;;;;;9.07;8.13;;;16.40;99.90;;;;;;5077182;28;20679;-52
2023/06/16 05:31:36;;;;;;;8.70;7.80;;;16.50;99.90;;;;;;5059653;28;20194;-51
2023/06/16 05:34:03;;;;;;;10.87;7.00;;;16.50;99.90;;;;;;5058860;28;20216;-51
2023/06/16 05:36:35;;;;;;;7.93;7.23;;;16.50;99.90;;;;;;5044721;28;20190;-49
2023/06/16 05:39:03;;;;;;;8.70;8.00;;;16.60;99.90;;;;;;5063887;28;20225;-48
2023/06/16 05:41:30;;;;;;;8.87;8.07;;;16.70;99.90;;;;;;5054701;28;20202;-51
2023/06/16 05:43:59;;;;;;;8.67;7.83;;;16.70;99.90;;;;;;5053803;28;20256;-52
2023/06/16 05:46:27;;;;;;;11.57;7.87;;;16.80;99.90;;;;;;5080824;28;20243;-49
2023/06/16 05:48:57;;;;;;;8.67;7.87;;;16.80;99.90;;;;;;5058348;28;20225;-48
2023/06/16 05:51:25;;;;;;;9.30;7.90;;;16.90;99.90;;;;;;5062654;28;20289;-49
2023/06/16 05:53:55;;;;;;;8.37;7.50;;;17.00;99.90;;;;;;5078574;28;20206;-50
2023/06/16 05:56:23;;;;;;;11.30;8.13;;;17.10;99.90;;;;;;5055653;28;20913;-49
2023/06/16 05:58:52;;;;;;;8.70;7.50;;;17.10;99.90;;;;;;5057274;28;20563;-51
2023/06/16 06:01:20;;;;;;;8.47;7.67;;;17.20;99.90;;;;;;5063358;28;20216;-48
2023/06/16 06:03:48;;;;;;;10.13;8.97;;;17.30;99.90;;;;;;5055517;28;20214;-49
2023/06/16 06:06:17;;;;;;;9.57;8.67;;;17.30;99.90;;;;;;5065911;28;20194;-51
2023/06/16 06:08:47;;;;;;;9.03;8.27;;;17.30;99.90;;;;;;5035378;28;20217;-47
2023/06/16 06:11:17;;;;;;;11.37;8.30;;;17.30;99.90;;;;;;5064992;28;20202;-48
2023/06/16 06:13:44;;;;;;;9.47;8.60;;;17.30;99.90;;;;;;5054145;28;21729;-51
2023/06/16 06:16:11;;;;;;;10.43;9.47;;;17.40;99.90;;;;;;5059426;28;20194;-48
2023/06/16 06:18:38;;;;;;;9.83;8.90;;;17.40;99.90;;;;;;5060374;28;20194;-51
2023/06/16 06:21:05;;;;;;;10.33;9.30;;;17.40;99.90;;;;;;5062242;28;20300;-52
2023/06/16 06:23:34;;;;;;;10.43;8.90;;;17.40;99.90;;;;;;5049536;28;20201;-52
2023/06/16 06:26:01;;;;;;;9.63;8.73;;;17.50;99.90;;;;;;5060586;28;20289;-52
2023/06/16 06:28:30;;;;;;;10.13;9.03;;;17.60;99.90;;;;;;5055940;28;20293;-48
2023/06/16 06:30:57;;;;;;;13.20;9.90;;;17.60;99.90;;;;;;5054403;28;20300;-49
2023/06/16 06:33:24;;;;;;;10.37;9.43;;;17.70;99.90;;;;;;5056817;28;20228;-51
2023/06/16 06:35:50;;;;;;;11.50;9.20;;;17.80;99.90;;;;;;5060082;28;20218;-48
2023/06/16 06:38:18;;;;;;;10.23;9.23;;;17.90;99.90;;;;;;5085032;28;20190;-48
2023/06/16 06:40:47;;;;;;;9.87;8.90;;;17.90;99.90;;;;;;5042745;28;20213;-50
2023/06/16 06:43:14;;;;;;;9.63;8.70;;;18.00;99.90;;;;;;5062624;28;20225;-54
2023/06/16 06:45:48;;;;;;;9.77;8.77;;;18.10;99.90;;;;;;5046801;28;20217;-49
2023/06/16 06:48:16;;;;;;;8.37;7.57;;;18.10;99.90;;;;;;5078827;28;20209;-50
2023/06/16 06:50:43;;;;;;;9.40;8.37;;;18.30;99.90;;;;;;5061128;28;20202;-50
2023/06/16 06:53:10;;;;;;;8.20;7.40;;;18.40;99.90;;;;;;5084077;28;20190;-51
2023/06/16 06:55:37;;;;;;;8.30;6.33;;;18.50;99.90;;;;;;5045157;28;23041;-51
2023/06/16 06:58:04;;;;;;;10.33;7.80;;;18.60;99.90;;;;;;5080832;28;20198;-50
2023/06/16 07:00:32;;;;;;;7.83;7.13;;;18.60;99.90;;;;;;5079500;28;20217;-49
2023/06/16 07:03:00;;;;;;;7.73;6.73;;;18.70;99.90;;;;;;5070779;28;20202;-49
2023/06/16 07:05:27;;;;;;;7.67;6.90;;;18.70;99.90;;;;;;5069953;28;20206;-51
2023/06/16 07:07:54;;;;;;;7.50;6.57;;;18.80;99.90;;;;;;5077011;28;20813;-49
2023/06/16 07:10:21;;;;;;;7.97;7.00;;;18.80;99.90;;;;;;5066686;28;20210;-51
2023/06/16 07:12:49;;;;;;;7.97;7.17;;;18.90;99.90;;;;;;5077772;28;20190;-48
2023/06/16 07:15:16;;;;;;;7.73;6.93;;;18.90;99.90;;;;;;5076115;28;20299;-53
2023/06/16 07:17:43;;;;;;;8.60;6.60;;;18.90;99.90;;;;;;5073308;28;21057;-50
2023/06/16 07:20:13;;;;;;;8.10;7.37;;;19.00;99.90;;;;;;5062940;28;20230;-51
2023/06/16 07:22:42;;;;;;;9.30;7.03;;;19.00;99.90;;;;;;5063996;28;20198;-53
2023/06/16 07:25:09;;;;;;;8.43;6.90;;;19.00;99.90;;;;;;5079670;28;20194;-49
2023/06/16 07:27:36;;;;;;;7.47;6.70;;;19.00;99.90;;;;;;5058146;28;20300;-53
2023/06/16 07:30:04;;;;;;;8.17;7.33;;;19.10;99.90;;;;;;5079685;28;20198;-51
2023/06/16 07:32:31;;;;;;;7.90;6.90;;;19.20;99.90;;;;;;5070605;28;20198;-51
2023/06/16 07:34:59;;;;;;;8.83;6.90;;;19.10;99.90;;;;;;5067912;28;20503;-51
2023/06/16 07:37:27;;;;;;;8.90;6.63;;;19.10;99.90;;;;;;5083211;28;20186;-51
2023/06/16 07:39:54;;;;;;;9.07;7.20;;;19.10;99.90;;;;;;5076272;28;20262;-51
2023/06/16 07:42:21;;;;;;;7.97;6.57;;;19.20;99.90;;;;;;5060229;28;20277;-51
2023/06/16 07:44:52;;;;;;;7.57;6.33;;;19.30;99.90;;;;;;5075384;28;20186;-49
2023/06/16 07:47:19;;;;;;;9.10;7.30;;;19.30;99.90;;;;;;5081963;28;20292;-52
2023/06/16 07:49:46;;;;;;;9.37;6.40;;;19.30;99.90;;;;;;5067380;28;20222;-54
2023/06/16 07:52:13;;;;;;;7.13;6.53;;;19.30;99.90;;;;;;5069397;28;20224;-49
2023/06/16 07:54:42;;;;;;;6.90;6.30;;;19.30;99.90;;;;;;5073718;28;20205;-49
2023/06/16 07:57:09;;;;;;;9.03;6.87;;;19.30;99.90;;;;;;5073771;28;20204;-54
2023/06/16 07:59:36;;;;;;;10.40;7.03;;;19.40;99.90;;;;;;5066650;28;20210;-51
2023/06/16 08:02:03;;;;;;;7.93;6.33;;;19.40;99.90;;;;;;5081704;28;20210;-53
2023/06/16 08:04:30;;;;;;;7.33;6.67;;;19.40;99.90;;;;;;5071426;28;20937;-50
2023/06/16 08:06:58;;;;;;;8.37;6.33;;;19.50;99.90;;;;;;5063720;28;20208;-50
2023/06/16 08:09:25;;;;;;;9.03;6.97;;;19.60;99.90;;;;;;5078923;28;20899;-53
2023/06/16 08:11:54;;;;;;;7.37;6.67;;;19.60;99.90;;;;;;5083434;28;20637;-50
2023/06/16 08:14:22;;;;;;;7.87;7.03;;;19.70;99.90;;;;;;5060837;28;20714;-54
2023/06/16 08:16:49;;;;;;;8.20;7.03;;;19.70;99.90;;;;;;5081050;28;20273;-51
2023/06/16 08:19:16;;;;;;;10.13;6.97;;;19.80;99.90;;;;;;5068846;28;20217;-51
2023/06/16 08:21:43;;;;;;;10.67;9.57;;;19.80;99.90;;;;;;5066973;28;22739;-53
2023/06/16 08:24:10;;;;;;;10.77;9.83;;;19.90;99.90;;;;;;5081498;28;20194;-50
2023/06/16 08:26:37;;;;;;;14.33;10.77;;;20.00;99.90;;;;;;5084375;28;20185;-49
2023/06/16 08:29:05;;;;;;;12.77;11.47;;;20.00;99.90;;;;;;5060727;28;20224;-52
2023/06/16 08:31:33;;;;;;;12.83;11.63;;;20.10;99.90;;;;;;5073868;28;20262;-50
2023/06/16 08:34:01;;;;;;;12.90;11.80;;;20.20;99.90;;;;;;5084519;28;20209;-50
2023/06/16 08:36:28;;;;;;;15.00;12.00;;;20.20;99.90;;;;;;5064126;28;20613;-48
2023/06/16 08:38:55;;;;;;;17.83;12.10;;;20.30;99.90;;;;;;5074040;28;20224;-51
2023/06/16 08:41:22;;;;;;;13.17;10.47;;;20.30;99.90;;;;;;5074505;28;20217;-53
2023/06/16 08:43:50;;;;;;;13.53;11.00;;;20.30;99.90;;;;;;5063198;28;20190;-48
2023/06/16 08:46:19;;;;;;;11.23;10.23;;;20.30;99.90;;;;;;5067489;28;20216;-47
2023/06/16 08:48:46;;;;;;;10.37;9.47;;;20.30;99.90;;;;;;5079831;28;20711;-47
2023/06/16 08:51:15;;;;;;;14.60;9.83;;;20.40;99.90;;;;;;5049285;28;20200;-49
2023/06/16 08:53:46;;;;;;;10.20;9.10;;;20.40;99.90;;;;;;5075787;28;20681;-49
2023/06/16 08:56:14;;;;;;;10.90;9.83;;;20.50;99.90;;;;;;5070608;28;20198;-47
2023/06/16 08:58:42;;;;;;;8.70;7.80;;;20.50;99.90;;;;;;5083413;28;20209;-53
2023/06/16 09:01:09;;;;;;;10.07;8.67;;;20.60;99.90;;;;;;5056756;28;20206;-51
2023/06/16 09:03:38;;;;;;;9.47;8.53;;;20.70;99.90;;;;;;5085174;28;20268;-48
2023/06/16 09:06:04;;;;;;;12.47;9.50;;;20.70;99.90;;;;;;5071860;28;20338;-47
2023/06/16 09:08:31;;;;;;;9.57;8.60;;;20.70;99.90;;;;;;5064187;28;20267;-51
2023/06/16 09:11:07;;;;;;;8.90;7.97;;;20.60;99.90;;;;;;5082547;28;20190;-51
2023/06/16 09:13:34;;;;;;;9.13;8.23;;;20.50;99.90;;;;;;5078346;28;20205;-51
2023/06/16 09:16:01;;;;;;;8.40;7.60;;;20.40;99.90;;;;;;5061272;28;20220;-47
2023/06/16 09:18:40;;;;;;;10.93;8.97;;;20.40;99.90;;;;;;5070008;28;20205;-51
2023/06/16 09:21:09;;;;;;;9.33;8.53;;;20.40;99.90;;;;;;5081790;28;20229;-47
2023/06/16 09:23:35;;;;;;;9.60;8.40;;;20.30;99.90;;;;;;5068290;28;20808;-47
2023/06/16 09:26:12;;;;;;;8.60;7.80;;;20.30;99.90;;;;;;5080666;28;20193;-49
2023/06/16 09:28:39;;;;;;;8.70;7.43;;;20.20;99.90;;;;;;5076575;28;20615;-50
2023/06/16 09:31:10;;;;;;;8.10;7.40;;;20.10;99.90;;;;;;5078944;28;20243;-48
2023/06/16 09:33:38;;;;;;;8.10;7.40;;;20.20;99.90;;;;;;5062925;28;20686;-48
2023/06/16 09:36:06;;;;;;;8.47;7.40;;;20.20;99.90;;;;;;5083955;28;20321;-47
2023/06/16 09:38:36;;;;;;;8.80;7.90;;;20.40;99.90;;;;;;5062742;28;20201;-48
2023/06/16 09:41:10;;;;;;;8.60;7.57;;;20.50;99.90;;;;;;5077704;28;20316;-52
2023/06/16 09:43:39;;;;;;;8.87;8.00;;;20.70;99.90;;;;;;5073014;28;20609;-50
2023/06/16 09:46:11;;;;;;;9.60;8.60;;;20.70;99.90;;;;;;5084209;28;20221;-46
2023/06/16 09:48:48;;;;;;;9.40;7.97;;;20.80;99.90;;;;;;5059162;28;20206;-51
2023/06/16 09:51:19;;;;;;;9.50;8.27;;;21.00;99.90;;;;;;5085295;28;20246;-53
2023/06/16 09:53:48;;;;;;;9.00;7.80;;;21.00;99.90;;;;;;5060993;28;20197;-51
2023/06/16 09:56:16;;;;;;;9.13;8.20;;;21.10;99.90;;;;;;5082240;28;20193;-51
2023/06/16 09:58:44;;;;;;;8.60;6.60;;;21.10;99.90;;;;;;5081036;28;20280;-50
2023/06/16 10:01:14;;;;;;;10.67;8.63;;;21.20;99.90;;;;;;5086207;28;20232;-50
2023/06/16 10:03:43;;;;;;;10.00;7.63;;;21.30;99.90;;;;;;5055390;28;20208;-50
2023/06/16 10:06:16;;;;;;;7.50;6.63;;;21.20;99.90;;;;;;5049695;28;20209;-49
2023/06/16 10:08:46;;;;;;;6.83;6.23;;;21.20;99.90;;;;;;5076761;28;20202;-49
2023/06/16 10:11:16;;;;;;;8.50;6.27;;;21.20;99.90;;;;;;5070580;28;20217;-51
2023/06/16 10:13:48;;;;;;;7.43;6.40;;;21.20;99.90;;;;;;5085166;28;20281;-48
2023/06/16 10:16:17;;;;;;;7.80;7.00;;;21.30;99.90;;;;;;5080564;28;20197;-50
2023/06/16 10:18:45;;;;;;;7.13;6.23;;;21.20;99.90;;;;;;5056952;28;20202;-49
2023/06/16 10:21:14;;;;;;;11.13;7.23;;;21.10;99.90;;;;;;5082176;28;20210;-51
2023/06/16 10:23:41;;;;;;;10.10;6.57;;;21.00;99.90;;;;;;5090136;28;20652;-51
2023/06/16 10:26:09;;;;;;;7.80;6.87;;;20.90;99.90;;;;;;5067957;28;20210;-51
2023/06/16 10:28:37;;;;;;;7.90;7.00;;;20.80;99.90;;;;;;5075905;28;20193;-49
2023/06/16 10:31:05;;;;;;;10.13;7.70;;;20.80;99.90;;;;;;5077845;28;20186;-50
2023/06/16 10:33:52;;;;;;;8.57;7.47;;;20.70;99.90;;;;;;5080021;28;20242;-48
2023/06/16 10:36:23;;;;;;;6.97;6.20;;;20.90;99.90;;;;;;5049526;28;20205;-52
2023/06/16 10:38:59;;;;;;;7.97;7.17;;;21.00;99.90;;;;;;5079324;28;20249;-53
2023/06/16 10:41:29;;;;;;;9.43;8.10;;;21.10;99.90;;;;;;5061173;28;20237;-51
2023/06/16 10:43:56;;;;;;;9.07;7.20;;;21.20;99.90;;;;;;5070538;28;20202;-49
2023/06/16 10:46:23;;;;;;;10.73;7.03;;;21.20;99.90;;;;;;5084610;28;20197;-48
2023/06/16 10:48:57;;;;;;;7.83;7.13;;;21.10;99.90;;;;;;5076689;28;20230;-52
2023/06/16 10:51:48;;;;;;;7.50;6.80;;;21.20;99.90;;;;;;5063468;28;20198;-49
2023/06/16 10:54:17;;;;;;;7.40;6.70;;;21.30;99.90;;;;;;5059603;28;20887;-52
2023/06/16 10:57:10;;;;;;;8.10;7.30;;;21.50;99.90;;;;;;5060709;28;20198;-49
2023/06/16 10:59:56;;;;;;;9.70;6.30;;;21.70;99.90;;;;;;5055483;28;20922;-49
2023/06/16 11:02:24;;;;;;;9.00;6.43;;;21.70;99.90;;;;;;5062886;28;20266;-51
2023/06/16 11:05:14;;;;;;;6.77;6.00;;;21.60;99.90;;;;;;5078774;28;20886;-52
2023/06/16 11:07:43;;;;;;;7.37;6.67;;;21.70;99.90;;;;;;5069112;28;20285;-48
2023/06/16 11:10:16;;;;;;;5.67;4.80;;;21.70;99.90;;;;;;5074757;28;20296;-49
2023/06/16 11:12:45;;;;;;;7.07;6.37;;;21.90;99.90;;;;;;5073438;28;20194;-49
2023/06/16 11:15:12;;;;;;;5.77;5.03;;;21.90;99.90;;;;;;5075737;28;20320;-51
2023/06/16 11:17:40;;;;;;;8.07;5.87;;;21.90;99.90;;;;;;5061035;28;20204;-48
2023/06/16 11:20:09;;;;;;;6.13;5.53;;;21.90;99.90;;;;;;5081824;28;20225;-47
2023/06/16 11:22:37;;;;;;;7.43;5.93;;;22.00;99.90;;;;;;5059444;28;20229;-50
2023/06/16 11:25:06;;;;;;;6.00;5.50;;;22.00;99.90;;;;;;5081894;28;20671;-48
2023/06/16 11:27:33;;;;;;;6.10;5.20;;;22.10;99.90;;;;;;5063285;28;23247;-50
2023/06/16 11:30:05;;;;;;;5.53;4.60;;;22.10;99.90;;;;;;5071789;28;20645;-47
2023/06/16 11:32:37;;;;;;;7.70;5.73;;;22.10;99.90;;;;;;5059943;28;20202;-53
2023/06/16 11:35:05;;;;;;;7.00;5.10;;;22.00;99.90;;;;;;5073956;28;20275;-49
2023/06/16 11:37:46;;;;;;;6.80;5.13;;;21.90;99.90;;;;;;5056639;28;20258;-51
2023/06/16 11:40:18;;;;;;;5.80;5.20;;;21.90;99.90;;;;;;5080168;28;20875;-50
2023/06/16 11:42:53;;;;;;;5.03;4.47;;;21.80;99.90;;;;;;5056337;28;20401;-50
2023/06/16 11:45:20;;;;;;;6.43;4.80;;;21.80;99.90;;;;;;5075544;28;20263;-51
2023/06/16 11:47:48;;;;;;;6.47;5.88;;;21.80;99.90;;;;;;5069568;28;20228;-50
2023/06/16 11:50:18;;;;;;;5.40;5.00;;;21.70;99.90;;;;;;5077784;28;20205;-53
2023/06/16 11:52:45;;;;;;;7.47;4.87;;;21.60;99.90;;;;;;5056048;28;20332;-48
2023/06/16 11:55:12;;;;;;;6.00;5.40;;;21.70;99.90;;;;;;5075549;28;20235;-53
2023/06/16 11:57:40;;;;;;;6.70;6.00;;;21.60;99.90;;;;;;5086774;28;20983;-49
2023/06/16 12:00:10;;;;;;;6.37;5.77;;;21.70;99.90;;;;;;5075063;28;20221;-52
2023/06/16 12:02:38;;;;;;;8.47;5.83;;;21.70;99.90;;;;;;5070064;28;20245;-48
2023/06/16 12:05:10;;;;;;;7.38;6.20;;;21.60;99.90;;;;;;5077739;28;20194;-52
2023/06/16 12:07:38;;;;;;;5.80;5.30;;;21.60;99.90;;;;;;5075654;28;20824;-48
2023/06/16 12:10:06;;;;;;;7.93;5.57;;;21.70;99.90;;;;;;5062290;28;20218;-50
2023/06/16 12:12:33;;;;;;;6.23;5.73;;;21.70;99.90;;;;;;5079961;28;20228;-51
2023/06/16 12:15:03;;;;;;;8.17;5.43;;;21.80;99.90;;;;;;5068351;28;20201;-50
2023/06/16 12:17:30;;;;;;;6.53;5.83;;;21.70;99.90;;;;;;5065163;28;20324;-50
2023/06/16 12:19:57;;;;;;;7.50;6.20;;;21.60;99.90;;;;;;5072417;28;20228;-50
2023/06/16 12:22:24;;;;;;;9.53;6.73;;;21.50;99.90;;;;;;5074202;28;20194;-51
2023/06/16 12:24:51;;;;;;;8.40;7.67;;;21.30;99.90;;;;;;5052229;28;20205;-53
2023/06/16 12:27:23;;;;;;;10.00;7.40;;;21.20;99.90;;;;;;5079278;28;20194;-52
2023/06/16 12:29:56;;;;;;;8.00;6.80;;;21.10;99.90;;;;;;5076386;28;20213;-53
2023/06/16 12:32:32;;;;;;;9.40;7.40;;;21.10;99.90;;;;;;5061113;28;20190;-51
2023/06/16 12:34:59;;;;;;;12.47;8.50;;;21.00;99.90;;;;;;5073970;28;20546;-51
2023/06/16 12:37:29;;;;;;;10.03;8.30;;;21.00;99.90;;;;;;5078191;28;20814;-50
2023/06/16 12:39:58;;;;;;;8.83;7.80;;;20.80;99.90;;;;;;5071886;28;20218;-50
2023/06/16 12:42:27;;;;;;;9.23;7.93;;;20.80;99.90;;;;;;5053304;28;20206;-51
2023/06/16 12:44:55;;;;;;;9.60;7.13;;;20.80;99.90;;;;;;5082167;28;20239;-50
2023/06/16 12:47:24;;;;;;;8.07;7.27;;;20.90;99.90;;;;;;5068270;28;20280;-49
2023/06/16 12:49:54;;;;;;;10.43;7.33;;;21.00;99.90;;;;;;5082337;28;20226;-50
2023/06/16 12:52:21;;;;;;;9.37;7.07;;;21.00;99.90;;;;;;5059024;28;20205;-50
2023/06/16 12:54:49;;;;;;;8.73;7.57;;;21.00;99.90;;;;;;5079880;28;20194;-53